Time;durP1;ratioP1;P1;durP2;ratioP2;P2;SDS_P1;SDS_P2;PMS_P1;PMS_P2;Temp;Humidity;BMP_temperature;BMP_pressure;BME280_temperature;BME280_humidity;BME280_pressure;Samples;Min_cycle;Max_cycle;Signal;HPM_P1;HPM_P2
2021/11/26 00:00:26;;;;;;;11.65;5.65;;;3.50;80.80;;;;;;5003697;28;20098;-67
2021/11/26 00:02:52;;;;;;;16.35;6.13;;;3.50;80.90;;;;;;5004942;28;20037;-67
2021/11/26 00:05:18;;;;;;;16.65;6.60;;;3.50;81.00;;;;;;5008063;28;20041;-67
2021/11/26 00:07:43;;;;;;;20.15;6.75;;;3.50;81.20;;;;;;5006075;28;20046;-67
2021/11/26 00:10:10;;;;;;;14.35;6.53;;;3.50;81.20;;;;;;5001007;28;20026;-67
2021/11/26 00:12:35;;;;;;;15.57;6.38;;;3.50;81.10;;;;;;5009578;28;20029;-67
2021/11/26 00:17:32;;;;;;;13.20;6.30;;;3.40;81.00;;;;;;5001600;28;20030;-67
2021/11/26 00:19:58;;;;;;;16.42;6.82;;;3.40;81.00;;;;;;5002669;28;20057;-67
2021/11/26 00:22:23;;;;;;;13.32;6.38;;;3.40;81.20;;;;;;5008149;28;20053;-66
2021/11/26 00:24:49;;;;;;;15.25;6.35;;;3.40;81.20;;;;;;5003112;28;20101;-67
2021/11/26 00:27:15;;;;;;;13.40;7.18;;;3.40;81.30;;;;;;5000248;28;20030;-67
2021/11/26 00:29:41;;;;;;;15.77;6.60;;;3.40;81.20;;;;;;5013675;28;20112;-66
2021/11/26 00:32:07;;;;;;;11.98;6.57;;;3.40;81.10;;;;;;5001603;28;20572;-67
2021/11/26 00:34:33;;;;;;;16.08;6.78;;;3.40;81.20;;;;;;5004837;28;20475;-67
2021/11/26 00:36:59;;;;;;;16.35;7.05;;;3.40;81.30;;;;;;5002516;28;20489;-67
2021/11/26 00:39:24;;;;;;;14.35;6.65;;;3.50;81.40;;;;;;5000202;28;20029;-66
2021/11/26 00:41:50;;;;;;;12.15;6.30;;;3.50;81.40;;;;;;5004507;28;20077;-67
2021/11/26 00:44:16;;;;;;;16.92;6.97;;;3.50;81.40;;;;;;5005080;28;20100;-67
2021/11/26 00:46:42;;;;;;;11.88;6.28;;;3.50;81.40;;;;;;4996384;28;20030;-67
2021/11/26 00:49:08;;;;;;;13.57;7.10;;;3.50;81.40;;;;;;5013552;28;20542;-67
2021/11/26 00:51:33;;;;;;;16.95;7.05;;;3.50;81.50;;;;;;5005956;28;20461;-66
2021/11/26 00:54:00;;;;;;;13.80;7.05;;;3.50;81.60;;;;;;5008263;28;20105;-67
2021/11/26 00:56:26;;;;;;;11.93;6.50;;;3.50;81.50;;;;;;5005402;28;20069;-67
2021/11/26 00:58:51;;;;;;;14.32;6.50;;;3.50;81.50;;;;;;5008324;28;20497;-66
2021/11/26 01:01:17;;;;;;;12.13;5.82;;;3.50;81.50;;;;;;4995304;28;20035;-67
2021/11/26 01:03:43;;;;;;;13.35;6.35;;;3.50;81.60;;;;;;5011760;28;20030;-66
2021/11/26 01:06:09;;;;;;;12.60;7.18;;;3.50;81.60;;;;;;5006767;28;20026;-67
2021/11/26 01:08:35;;;;;;;18.20;6.78;;;3.50;81.60;;;;;;5007397;28;20113;-67
2021/11/26 01:11:01;;;;;;;14.00;6.53;;;3.50;81.60;;;;;;5005427;28;20042;-67
2021/11/26 01:13:27;;;;;;;15.13;6.18;;;3.50;81.70;;;;;;5009609;28;20080;-67
2021/11/26 01:15:53;;;;;;;10.65;6.13;;;3.50;81.60;;;;;;5001441;28;20464;-67
2021/11/26 01:18:19;;;;;;;13.45;5.80;;;3.50;81.60;;;;;;5006014;28;20030;-67
2021/11/26 01:20:46;;;;;;;10.57;6.05;;;3.40;81.40;;;;;;5006751;28;20025;-67
2021/11/26 01:23:12;;;;;;;16.83;7.00;;;3.40;81.30;;;;;;4998233;28;20079;-67
2021/11/26 01:25:40;;;;;;;14.05;6.68;;;3.30;81.20;;;;;;5011882;28;20049;-67
2021/11/26 01:28:07;;;;;;;14.13;6.88;;;3.30;81.40;;;;;;5003947;28;20026;-67
2021/11/26 01:30:36;;;;;;;13.98;6.82;;;3.30;81.40;;;;;;5010519;28;20022;-67
2021/11/26 01:33:08;;;;;;;13.77;7.32;;;3.30;81.60;;;;;;5004747;28;20100;-67
2021/11/26 01:35:35;;;;;;;15.27;7.78;;;3.30;81.70;;;;;;4994601;28;20092;-67
2021/11/26 01:38:01;;;;;;;17.08;7.38;;;3.30;81.90;;;;;;5010969;28;20408;-67
2021/11/26 01:40:27;;;;;;;20.55;8.10;;;3.30;81.90;;;;;;4981252;28;20515;-66
2021/11/26 01:42:55;;;;;;;16.05;7.60;;;3.30;82.20;;;;;;5009592;28;20517;-66
2021/11/26 01:45:22;;;;;;;17.40;7.50;;;3.30;82.20;;;;;;5005036;28;20029;-67
2021/11/26 01:47:48;;;;;;;17.33;8.10;;;3.40;82.50;;;;;;5006669;28;20033;-67
2021/11/26 01:50:15;;;;;;;15.93;8.07;;;3.40;82.60;;;;;;5008481;28;20042;-66
2021/11/26 01:52:41;;;;;;;13.93;6.72;;;3.40;82.70;;;;;;5000209;28;20038;-67
2021/11/26 01:55:10;;;;;;;12.40;6.93;;;3.50;82.80;;;;;;5003284;28;20492;-67
2021/11/26 01:57:36;;;;;;;15.07;7.32;;;3.50;82.80;;;;;;5003031;28;20563;-67
2021/11/26 02:00:10;;;;;;;17.52;7.72;;;3.50;82.60;;;;;;5006482;28;20579;-67
2021/11/26 02:02:36;;;;;;;19.10;11.13;;;3.60;82.60;;;;;;4998504;28;20527;-67
2021/11/26 02:05:03;;;;;;;18.15;9.38;;;3.60;82.40;;;;;;5003260;28;20026;-67
2021/11/26 02:07:28;;;;;;;18.30;9.23;;;3.60;82.30;;;;;;5002325;28;20025;-67
2021/11/26 02:09:54;;;;;;;17.90;8.18;;;3.60;82.40;;;;;;5006488;28;20029;-67
2021/11/26 02:12:20;;;;;;;17.67;8.40;;;3.60;82.50;;;;;;5001177;28;20033;-67
2021/11/26 02:14:46;;;;;;;16.65;7.57;;;3.60;82.40;;;;;;5000652;28;20034;-67
2021/11/26 02:17:13;;;;;;;16.80;7.07;;;3.60;82.40;;;;;;4996094;28;20026;-67
2021/11/26 02:19:40;;;;;;;15.43;7.45;;;3.70;82.40;;;;;;5010965;28;20104;-67
2021/11/26 02:22:06;;;;;;;17.67;7.65;;;3.60;82.30;;;;;;5006196;28;20027;-67
2021/11/26 02:24:32;;;;;;;16.45;7.30;;;3.60;82.30;;;;;;5003063;28;20540;-67
2021/11/26 02:26:58;;;;;;;15.35;7.93;;;3.60;82.30;;;;;;5002032;28;20034;-66
2021/11/26 02:29:24;;;;;;;16.83;7.45;;;3.60;82.20;;;;;;5007433;28;20025;-67
2021/11/26 02:31:50;;;;;;;14.02;7.10;;;3.60;82.30;;;;;;4993330;28;20460;-67
2021/11/26 02:34:17;;;;;;;18.55;7.28;;;3.60;82.40;;;;;;5000296;28;20034;-66
2021/11/26 02:36:43;;;;;;;17.08;6.82;;;3.60;82.40;;;;;;4999171;28;20036;-67
2021/11/26 02:39:09;;;;;;;16.98;7.20;;;3.60;82.30;;;;;;5009889;28;20056;-67
2021/11/26 02:41:41;;;;;;;14.80;7.80;;;3.60;82.40;;;;;;5010037;28;20050;-67
2021/11/26 02:44:07;;;;;;;15.02;7.05;;;3.70;82.50;;;;;;4994730;28;20492;-67
2021/11/26 02:46:34;;;;;;;17.85;7.88;;;3.60;82.20;;;;;;5002595;28;20512;-67
2021/11/26 02:49:00;;;;;;;16.65;7.88;;;3.60;82.10;;;;;;5002574;28;20086;-66
2021/11/26 02:51:26;;;;;;;17.83;8.48;;;3.60;82.10;;;;;;5009960;28;20485;-67
2021/11/26 02:53:52;;;;;;;12.70;6.88;;;3.60;82.20;;;;;;4998766;28;20101;-67
2021/11/26 02:56:17;;;;;;;14.82;7.55;;;3.60;82.30;;;;;;4996526;28;20030;-66
2021/11/26 02:58:43;;;;;;;13.20;7.57;;;3.60;82.30;;;;;;4998342;28;20018;-67
2021/11/26 03:01:09;;;;;;;16.40;7.78;;;3.60;82.30;;;;;;5001047;28;20026;-67
2021/11/26 03:03:35;;;;;;;16.25;7.93;;;3.60;82.40;;;;;;4998338;28;20057;-66
2021/11/26 03:06:04;;;;;;;15.48;8.13;;;3.60;82.30;;;;;;5009607;28;20057;-67
2021/11/26 03:08:32;;;;;;;14.77;7.63;;;3.60;82.30;;;;;;5008779;28;20496;-67
2021/11/26 03:11:00;;;;;;;15.90;8.07;;;3.60;82.40;;;;;;4994064;28;20025;-67
2021/11/26 03:13:26;;;;;;;17.92;7.85;;;3.60;83.30;;;;;;4996053;28;20520;-67
2021/11/26 03:15:52;;;;;;;16.30;8.15;;;3.60;82.40;;;;;;5008408;28;20110;-67
2021/11/26 03:18:19;;;;;;;16.30;7.32;;;3.60;82.50;;;;;;5004309;28;20027;-67
2021/11/26 03:20:47;;;;;;;16.00;7.43;;;3.60;82.60;;;;;;5010029;28;20022;-67
2021/11/26 03:23:14;;;;;;;15.55;7.95;;;3.70;82.50;;;;;;5003215;28;20033;-67
2021/11/26 03:25:41;;;;;;;16.58;7.97;;;3.70;82.50;;;;;;5002386;28;20113;-67
2021/11/26 03:28:12;;;;;;;19.70;8.48;;;3.70;82.40;;;;;;4996074;28;20177;-67
2021/11/26 03:30:38;;;;;;;16.05;7.72;;;3.70;82.30;;;;;;5000504;28;20504;-67
2021/11/26 03:33:04;;;;;;;18.10;8.68;;;3.60;82.20;;;;;;5007126;28;20033;-67
2021/11/26 03:35:30;;;;;;;14.85;7.60;;;3.60;82.40;;;;;;5015616;28;20042;-67
2021/11/26 03:37:56;;;;;;;16.30;8.73;;;3.50;82.40;;;;;;5006831;28;20052;-67
2021/11/26 03:40:23;;;;;;;14.50;8.02;;;3.50;82.40;;;;;;4998937;28;20042;-67
2021/11/26 03:42:51;;;;;;;15.80;8.90;;;3.40;82.30;;;;;;5006093;28;20046;-67
2021/11/26 03:45:19;;;;;;;21.05;8.90;;;3.40;82.40;;;;;;5009060;28;20044;-67
2021/11/26 03:47:46;;;;;;;20.15;8.18;;;3.40;82.60;;;;;;5008185;28;20101;-67
2021/11/26 03:50:12;;;;;;;17.20;8.00;;;3.40;82.80;;;;;;5009488;28;20018;-66
2021/11/26 03:52:39;;;;;;;17.90;8.90;;;3.30;82.70;;;;;;5009739;28;20034;-67
2021/11/26 03:55:09;;;;;;;20.95;8.82;;;3.30;82.80;;;;;;4998073;28;20046;-66
2021/11/26 03:57:35;;;;;;;16.42;8.43;;;3.30;82.80;;;;;;4995935;28;20030;-66
2021/11/26 04:00:01;;;;;;;14.98;7.85;;;3.30;82.80;;;;;;5005186;28;20401;-67
2021/11/26 04:02:26;;;;;;;20.08;7.70;;;3.30;82.80;;;;;;4998414;28;20065;-67
2021/11/26 04:04:52;;;;;;;16.95;8.07;;;3.30;82.90;;;;;;5009221;28;20030;-66
2021/11/26 04:07:23;;;;;;;16.50;8.13;;;3.30;82.80;;;;;;5009968;28;20018;-67
2021/11/26 04:09:53;;;;;;;12.95;8.13;;;3.30;82.80;;;;;;5009247;28;20440;-67
2021/11/26 04:12:20;;;;;;;19.25;8.55;;;3.30;82.90;;;;;;5008994;28;20030;-67
2021/11/26 04:14:55;;;;;;;15.30;8.30;;;3.30;82.90;;;;;;5012011;28;20037;-67
2021/11/26 04:17:24;;;;;;;18.73;8.57;;;3.30;83.00;;;;;;5012790;28;20056;-67
2021/11/26 04:19:54;;;;;;;14.52;7.70;;;3.30;83.00;;;;;;5012397;28;20551;-67
2021/11/26 04:22:23;;;;;;;17.75;9.35;;;3.20;83.10;;;;;;5013925;28;20022;-66
2021/11/26 04:24:53;;;;;;;15.82;8.07;;;3.20;83.10;;;;;;5012216;28;20034;-67
2021/11/26 04:27:24;;;;;;;16.40;8.65;;;3.20;83.00;;;;;;5007980;28;20050;-67
2021/11/26 04:29:53;;;;;;;19.17;9.02;;;3.20;82.90;;;;;;5011997;28;20045;-67
2021/11/26 04:32:29;;;;;;;14.10;7.50;;;3.10;83.00;;;;;;5012422;28;20040;-67
2021/11/26 04:35:01;;;;;;;16.70;8.15;;;3.10;83.00;;;;;;5012587;28;20116;-67
2021/11/26 04:37:33;;;;;;;18.58;8.70;;;3.00;82.90;;;;;;5000505;28;20053;-67
2021/11/26 04:40:08;;;;;;;17.60;8.20;;;3.00;83.10;;;;;;5012377;28;20073;-67
2021/11/26 04:42:40;;;;;;;21.80;8.77;;;3.00;83.20;;;;;;5011846;28;20127;-67
2021/11/26 04:45:10;;;;;;;15.20;8.35;;;3.00;83.30;;;;;;5012137;28;20041;-67
2021/11/26 04:47:37;;;;;;;15.35;8.23;;;3.00;83.30;;;;;;5012127;28;20404;-67
2021/11/26 04:50:08;;;;;;;18.13;8.65;;;3.00;83.40;;;;;;5012472;28;20085;-67
2021/11/26 04:52:35;;;;;;;13.18;8.38;;;3.00;83.40;;;;;;5009864;28;20370;-67
2021/11/26 04:55:01;;;;;;;17.15;8.77;;;3.00;83.40;;;;;;4996655;28;20046;-67
2021/11/26 04:57:27;;;;;;;14.63;7.97;;;3.00;83.50;;;;;;4996022;28;20041;-67
2021/11/26 04:59:54;;;;;;;16.48;8.15;;;3.00;83.50;;;;;;5008628;28;20040;-67
2021/11/26 05:02:20;;;;;;;15.55;8.23;;;3.00;83.50;;;;;;5010759;28;20500;-67
2021/11/26 05:04:46;;;;;;;16.65;8.23;;;3.00;83.50;;;;;;5012040;28;20034;-67
2021/11/26 05:07:13;;;;;;;16.52;8.60;;;3.10;83.50;;;;;;4998272;28;20034;-67
2021/11/26 05:09:39;;;;;;;17.10;7.72;;;3.10;83.40;;;;;;5011829;28;20424;-67
2021/11/26 05:12:05;;;;;;;17.65;8.65;;;3.10;84.40;;;;;;5011336;28;20032;-67
2021/11/26 05:14:32;;;;;;;17.98;8.40;;;3.10;83.30;;;;;;5011306;28;20165;-67
2021/11/26 05:16:58;;;;;;;14.20;8.48;;;3.10;83.40;;;;;;5011180;28;20042;-67
2021/11/26 05:19:24;;;;;;;15.35;8.35;;;3.20;83.50;;;;;;4998729;28;20112;-67
2021/11/26 05:21:50;;;;;;;20.40;8.80;;;3.20;83.40;;;;;;5010056;28;20061;-67
2021/11/26 05:24:15;;;;;;;14.30;7.88;;;3.20;83.40;;;;;;5010218;28;20101;-66
2021/11/26 05:26:41;;;;;;;14.90;7.85;;;3.20;83.50;;;;;;5008714;28;20061;-67
2021/11/26 05:29:08;;;;;;;15.70;8.07;;;3.20;83.40;;;;;;5001112;28;20026;-67
2021/11/26 05:31:37;;;;;;;16.92;8.20;;;3.20;83.40;;;;;;5000485;28;20026;-66
2021/11/26 05:34:04;;;;;;;18.23;9.05;;;3.30;83.40;;;;;;5000981;28;20494;-66
2021/11/26 05:36:30;;;;;;;15.60;8.30;;;3.30;83.40;;;;;;5005273;28;20027;-66
2021/11/26 05:38:56;;;;;;;18.13;8.82;;;3.30;83.20;;;;;;5000400;28;20037;-67
2021/11/26 05:41:22;;;;;;;19.90;9.30;;;3.30;83.10;;;;;;5007773;28;20038;-67
2021/11/26 05:43:48;;;;;;;19.60;9.38;;;3.30;82.90;;;;;;5005802;28;20030;-67
2021/11/26 05:46:14;;;;;;;16.63;9.32;;;3.30;82.80;;;;;;5002790;28;20433;-66
2021/11/26 05:48:40;;;;;;;17.17;9.20;;;3.30;82.80;;;;;;5008899;28;20092;-66
2021/11/26 05:51:06;;;;;;;17.17;9.48;;;3.30;82.90;;;;;;5009394;28;20038;-66
2021/11/26 05:53:32;;;;;;;20.17;9.52;;;3.20;82.90;;;;;;5009779;28;20022;-66
2021/11/26 05:56:00;;;;;;;16.25;9.38;;;3.30;83.10;;;;;;5008205;28;20046;-66
2021/11/26 05:58:26;;;;;;;17.48;9.10;;;3.30;83.20;;;;;;4999477;28;20032;-65
2021/11/26 06:00:52;;;;;;;15.45;8.50;;;3.30;83.30;;;;;;5002764;28;20447;-67
2021/11/26 06:03:18;;;;;;;20.02;9.77;;;3.30;83.20;;;;;;5005796;28;20056;-66
2021/11/26 06:05:43;;;;;;;18.13;9.73;;;3.40;83.40;;;;;;5002626;28;20669;-66
2021/11/26 06:08:09;;;;;;;18.10;10.07;;;3.40;83.30;;;;;;4998422;28;20034;-66
2021/11/26 06:10:35;;;;;;;20.58;10.05;;;3.50;83.30;;;;;;4995518;28;20053;-66
2021/11/26 06:13:01;;;;;;;21.20;9.18;;;3.50;83.30;;;;;;5009165;28;20029;-66
2021/11/26 06:15:27;;;;;;;16.25;8.80;;;3.50;83.30;;;;;;5010669;28;20513;-66
2021/11/26 06:17:53;;;;;;;21.85;9.63;;;3.60;83.30;;;;;;5005254;28;20033;-66
2021/11/26 06:20:19;;;;;;;18.27;9.95;;;3.60;83.30;;;;;;5009481;28;20029;-66
2021/11/26 06:22:46;;;;;;;16.58;9.75;;;3.60;83.10;;;;;;4998122;28;20509;-66
2021/11/26 06:25:14;;;;;;;17.15;9.10;;;3.60;83.10;;;;;;5006096;28;20033;-65
2021/11/26 06:27:41;;;;;;;15.88;9.10;;;3.60;83.20;;;;;;5006114;28;20688;-66
2021/11/26 06:30:10;;;;;;;16.45;8.88;;;3.70;83.20;;;;;;5001144;28;20033;-66
2021/11/26 06:32:37;;;;;;;13.82;8.18;;;3.70;83.20;;;;;;5010055;28;20104;-67
2021/11/26 06:35:03;;;;;;;16.73;8.48;;;3.70;83.20;;;;;;5004950;28;20813;-67
2021/11/26 06:37:29;;;;;;;15.98;9.13;;;3.80;83.20;;;;;;4998145;28;20497;-66
2021/11/26 06:39:55;;;;;;;15.48;8.65;;;3.80;83.20;;;;;;5011820;28;20092;-67
2021/11/26 06:42:21;;;;;;;19.92;8.90;;;3.80;83.20;;;;;;5009845;28;20049;-67
2021/11/26 06:44:47;;;;;;;20.30;8.48;;;3.80;83.20;;;;;;4990187;28;20026;-67
2021/11/26 06:47:13;;;;;;;15.85;8.00;;;3.80;83.10;;;;;;5009125;28;20026;-67
2021/11/26 06:49:38;;;;;;;15.32;8.98;;;3.80;83.20;;;;;;5003084;28;20108;-67
2021/11/26 06:52:04;;;;;;;17.40;7.80;;;3.80;83.30;;;;;;5002877;28;20363;-68
2021/11/26 06:54:31;;;;;;;12.45;7.68;;;3.80;83.40;;;;;;5006123;28;20044;-67
2021/11/26 06:56:58;;;;;;;30.77;15.38;;;3.90;83.50;;;;;;5007345;28;20041;-67
2021/11/26 06:59:23;;;;;;;24.75;11.75;;;3.90;83.50;;;;;;5010036;28;20041;-67
2021/11/26 07:01:49;;;;;;;17.33;8.88;;;3.90;83.50;;;;;;5010289;28;20030;-67
2021/11/26 07:04:15;;;;;;;17.38;9.45;;;4.00;83.50;;;;;;4996300;28;20085;-66
2021/11/26 07:06:41;;;;;;;13.35;7.90;;;4.00;83.50;;;;;;5007009;28;20088;-67
2021/11/26 07:09:06;;;;;;;15.43;8.13;;;4.00;83.30;;;;;;5009555;28;20549;-67
2021/11/26 07:11:33;;;;;;;11.32;7.60;;;4.00;83.30;;;;;;5010047;28;20104;-66
2021/11/26 07:13:59;;;;;;;12.63;7.18;;;4.00;83.40;;;;;;5010057;28;20489;-67
2021/11/26 07:16:25;;;;;;;14.52;7.32;;;4.00;83.50;;;;;;5010901;28;20050;-67
2021/11/26 07:18:52;;;;;;;12.45;7.07;;;4.00;83.60;;;;;;5007979;28;20511;-67
2021/11/26 07:21:18;;;;;;;12.65;6.50;;;4.10;83.70;;;;;;5009646;28;20064;-67
2021/11/26 07:23:44;;;;;;;13.48;6.82;;;4.10;83.70;;;;;;5009816;28;20054;-67
2021/11/26 07:26:10;;;;;;;14.80;7.30;;;4.10;83.70;;;;;;5010164;28;20627;-67
2021/11/26 07:28:36;;;;;;;10.98;5.65;;;4.10;83.80;;;;;;5010486;28;20027;-67
2021/11/26 07:31:02;;;;;;;12.73;6.43;;;4.10;83.70;;;;;;5012626;28;20018;-67
2021/11/26 07:33:27;;;;;;;13.65;5.10;;;4.20;83.70;;;;;;5009984;28;20116;-67
2021/11/26 07:35:53;;;;;;;12.63;5.80;;;4.20;83.80;;;;;;5009073;28;20081;-67
2021/11/26 07:38:19;;;;;;;13.20;4.95;;;4.20;83.90;;;;;;5009752;28;20130;-67
2021/11/26 07:40:45;;;;;;;253.02;117.03;;;4.20;83.90;;;;;;5010127;28;20030;-67
2021/11/26 07:43:12;;;;;;;254.02;121.88;;;4.30;84.00;;;;;;5007817;28;20066;-68
2021/11/26 07:45:38;;;;;;;188.32;91.13;;;4.30;83.90;;;;;;5012939;28;20112;-67
2021/11/26 07:48:04;;;;;;;94.90;48.58;;;4.40;84.10;;;;;;5010918;28;20105;-67
2021/11/26 07:50:30;;;;;;;59.63;32.70;;;4.40;84.10;;;;;;5013236;28;20439;-67
2021/11/26 07:52:55;;;;;;;23.27;12.35;;;4.50;84.10;;;;;;5010259;28;20041;-67
2021/11/26 07:55:22;;;;;;;14.73;8.60;;;4.50;84.10;;;;;;5014587;28;20496;-67
2021/11/26 07:57:50;;;;;;;17.90;7.15;;;4.50;84.10;;;;;;5013361;28;20025;-67
2021/11/26 08:00:16;;;;;;;20.70;9.15;;;4.50;84.00;;;;;;5013131;28;20028;-67
2021/11/26 08:02:42;;;;;;;12.40;4.85;;;4.60;84.10;;;;;;5013026;28;20022;-67
2021/11/26 08:05:08;;;;;;;9.98;5.10;;;4.60;84.10;;;;;;5012930;28;20459;-67
2021/11/26 08:07:36;;;;;;;11.85;4.97;;;4.60;84.10;;;;;;5014339;28;20444;-67
2021/11/26 08:10:04;;;;;;;14.20;5.13;;;4.60;84.20;;;;;;5013489;28;20485;-67
2021/11/26 08:12:30;;;;;;;10.80;4.30;;;4.60;84.10;;;;;;5012874;28;20538;-67
2021/11/26 08:14:56;;;;;;;12.98;4.65;;;4.60;84.10;;;;;;5012891;28;20038;-67
2021/11/26 08:17:22;;;;;;;9.20;4.60;;;4.60;84.10;;;;;;5012849;28;20033;-67
2021/11/26 08:19:48;;;;;;;11.43;2.97;;;4.60;84.10;;;;;;5012930;28;20042;-67
2021/11/26 08:22:17;;;;;;;9.90;3.75;;;4.70;84.30;;;;;;5014054;28;20041;-67
2021/11/26 08:24:43;;;;;;;10.98;3.40;;;4.80;84.20;;;;;;5009979;28;20037;-67
2021/11/26 08:27:08;;;;;;;11.27;3.28;;;4.80;84.00;;;;;;5012604;28;20037;-67
2021/11/26 08:29:34;;;;;;;10.25;3.08;;;4.90;83.70;;;;;;5012770;28;20041;-67
2021/11/26 08:32:00;;;;;;;6.40;3.22;;;4.90;83.70;;;;;;5012979;28;20551;-67
2021/11/26 08:34:25;;;;;;;11.07;3.72;;;5.00;83.70;;;;;;5013487;28;20030;-67
2021/11/26 08:36:51;;;;;;;11.63;4.70;;;5.00;83.60;;;;;;5012344;28;20030;-67
2021/11/26 08:39:17;;;;;;;7.70;3.38;;;5.10;83.60;;;;;;5012522;28;20037;-67
2021/11/26 08:41:43;;;;;;;9.75;3.50;;;5.10;83.60;;;;;;5012166;28;20203;-67
2021/11/26 08:44:09;;;;;;;9.93;3.45;;;5.10;83.60;;;;;;5012808;28;20057;-67
2021/11/26 08:46:35;;;;;;;9.48;3.50;;;5.20;83.50;;;;;;5013771;28;20038;-67
2021/11/26 08:49:01;;;;;;;8.00;2.92;;;5.20;83.30;;;;;;5021222;28;20476;-67
2021/11/26 08:51:32;;;;;;;13.93;4.07;;;5.20;83.30;;;;;;5016946;28;20030;-67
2021/11/26 08:53:58;;;;;;;7.93;3.30;;;5.30;83.50;;;;;;5012292;28;20103;-67
2021/11/26 08:56:25;;;;;;;13.85;6.53;;;5.40;83.50;;;;;;5012336;28;20038;-67
2021/11/26 08:58:51;;;;;;;9.30;4.15;;;5.40;83.50;;;;;;5011594;28;20030;-67
2021/11/26 09:01:17;;;;;;;9.45;3.80;;;5.40;83.40;;;;;;5000044;28;20027;-67
2021/11/26 09:03:47;;;;;;;10.93;3.67;;;5.50;83.30;;;;;;5009058;28;20485;-67
2021/11/26 09:06:20;;;;;;;8.68;2.92;;;5.60;83.30;;;;;;5011900;28;20022;-67
2021/11/26 09:08:46;;;;;;;7.70;3.20;;;5.70;83.40;;;;;;5011855;28;20053;-67
2021/11/26 09:11:12;;;;;;;9.02;3.25;;;5.80;83.30;;;;;;5011968;28;20026;-67
2021/11/26 09:13:39;;;;;;;12.13;2.85;;;5.90;83.20;;;;;;5012694;28;20073;-67
2021/11/26 09:16:05;;;;;;;8.88;2.45;;;6.00;82.90;;;;;;5000534;28;20039;-67
2021/11/26 09:18:30;;;;;;;9.07;2.72;;;6.20;82.80;;;;;;5007190;28;20037;-67
2021/11/26 09:20:58;;;;;;;7.88;2.50;;;6.30;82.70;;;;;;5011695;28;20034;-67
2021/11/26 09:23:24;;;;;;;9.73;2.75;;;6.50;82.50;;;;;;5011647;28;20030;-67
2021/11/26 09:25:50;;;;;;;6.38;2.35;;;6.80;82.00;;;;;;4998651;28;20952;-67
2021/11/26 09:28:17;;;;;;;7.72;2.38;;;6.90;81.60;;;;;;5010546;28;20124;-67
2021/11/26 09:30:43;;;;;;;9.40;2.20;;;7.00;81.50;;;;;;5018790;28;20057;-67
2021/11/26 09:33:10;;;;;;;9.52;2.35;;;7.20;81.20;;;;;;5018117;28;20046;-67
2021/11/26 09:35:36;;;;;;;8.57;2.03;;;7.30;80.70;;;;;;5011592;28;20044;-67
2021/11/26 09:38:02;;;;;;;11.02;2.20;;;7.40;80.30;;;;;;5011351;28;20022;-67
2021/11/26 09:40:29;;;;;;;7.00;1.80;;;7.40;80.00;;;;;;5012724;28;20041;-67
2021/11/26 09:42:55;;;;;;;6.40;1.88;;;7.40;80.30;;;;;;5011065;28;20042;-67
2021/11/26 09:45:23;;;;;;;8.55;2.03;;;7.40;80.30;;;;;;5010978;28;20034;-67
2021/11/26 09:47:50;;;;;;;9.73;2.22;;;7.40;81.10;;;;;;5010791;28;20037;-67
2021/11/26 09:50:17;;;;;;;8.05;2.42;;;7.40;79.90;;;;;;5011063;28;20021;-67
2021/11/26 09:52:43;;;;;;;7.85;2.00;;;7.40;79.70;;;;;;5011602;28;20029;-67
2021/11/26 09:55:11;;;;;;;6.85;1.90;;;7.50;79.60;;;;;;5011027;28;20121;-67
2021/11/26 09:57:39;;;;;;;8.52;1.98;;;7.50;79.50;;;;;;5011069;28;20495;-67
2021/11/26 10:00:07;;;;;;;7.20;2.00;;;7.60;79.20;;;;;;5011057;28;20022;-67
2021/11/26 10:02:33;;;;;;;9.57;2.00;;;7.70;78.80;;;;;;5010837;28;20037;-67
2021/11/26 10:05:01;;;;;;;11.35;2.05;;;8.10;77.90;;;;;;5011098;28;20022;-68
2021/11/26 10:07:27;;;;;;;7.55;2.00;;;8.50;76.90;;;;;;5012087;28;20100;-67
2021/11/26 10:10:04;;;;;;;6.18;2.17;;;8.80;75.20;;;;;;5010756;28;20040;-68
2021/11/26 10:12:30;;;;;;;9.88;2.13;;;8.90;74.70;;;;;;5009825;28;20037;-67
2021/11/26 10:14:57;;;;;;;6.95;1.90;;;8.90;74.40;;;;;;5010282;28;20459;-67
2021/11/26 10:17:24;;;;;;;6.50;1.85;;;8.80;73.50;;;;;;5010657;28;20532;-67
2021/11/26 10:20:02;;;;;;;9.60;2.05;;;8.70;73.90;;;;;;5011313;28;20026;-68
2021/11/26 10:22:31;;;;;;;9.27;2.10;;;8.60;73.90;;;;;;4996219;28;20030;-67
2021/11/26 10:25:19;;;;;;;7.65;2.15;;;8.50;74.20;;;;;;5010138;28;20058;-67
2021/11/26 10:27:55;;;;;;;9.50;2.00;;;8.40;73.70;;;;;;5010542;28;20095;-68
2021/11/26 10:30:34;;;;;;;9.23;1.90;;;8.40;74.30;;;;;;5009939;28;20489;-67
2021/11/26 10:32:59;;;;;;;9.50;1.90;;;8.40;74.30;;;;;;5009589;28;20034;-67
2021/11/26 10:35:37;;;;;;;8.20;2.00;;;8.50;74.80;;;;;;5010571;28;20100;-67
2021/11/26 10:38:09;;;;;;;8.07;1.83;;;8.50;74.60;;;;;;5010321;28;20034;-67
2021/11/26 10:40:38;;;;;;;9.77;2.08;;;8.50;74.60;;;;;;5003091;28;20038;-67
2021/11/26 10:43:12;;;;;;;6.40;1.52;;;8.50;74.50;;;;;;5010753;28;20497;-67
2021/11/26 10:46:02;;;;;;;7.68;2.05;;;8.50;74.00;;;;;;5009824;28;20045;-67
2021/11/26 10:57:01;;;;;;;8.95;2.00;;;8.70;74.50;;;;;;5012262;28;20037;-67
2021/11/26 10:59:29;;;;;;;10.13;1.95;;;8.80;73.90;;;;;;4997114;28;22827;-68
2021/11/26 11:01:56;;;;;;;7.78;1.70;;;8.90;73.30;;;;;;5010097;28;20404;-68
2021/11/26 11:04:24;;;;;;;7.05;1.65;;;9.10;73.20;;;;;;5011324;28;20030;-67
2021/11/26 11:07:03;;;;;;;12.00;2.00;;;9.20;73.00;;;;;;5009735;28;20034;-67
2021/11/26 11:09:47;;;;;;;6.97;2.10;;;9.30;72.80;;;;;;5009956;28;20037;-67
2021/11/26 11:12:14;;;;;;;8.48;2.70;;;9.40;72.20;;;;;;5009957;28;20532;-67
2021/11/26 11:14:52;;;;;;;7.95;2.00;;;9.50;72.50;;;;;;5009424;28;20484;-68
2021/11/26 11:17:24;;;;;;;7.72;1.90;;;9.60;72.30;;;;;;5009853;28;20030;-68
2021/11/26 11:19:52;;;;;;;8.07;1.90;;;9.70;72.10;;;;;;5009896;28;20022;-67
2021/11/26 11:22:18;;;;;;;8.88;2.05;;;9.80;71.60;;;;;;5014578;28;20030;-67
2021/11/26 11:24:44;;;;;;;9.15;1.83;;;9.90;71.80;;;;;;5014534;28;20026;-67
2021/11/26 11:27:10;;;;;;;10.35;2.22;;;10.00;71.50;;;;;;5013723;28;20477;-67
2021/11/26 11:29:36;;;;;;;9.25;2.00;;;10.00;71.00;;;;;;5013587;28;20493;-68
2021/11/26 11:32:02;;;;;;;11.18;2.13;;;10.00;71.00;;;;;;5014085;28;20595;-68
2021/11/26 11:34:30;;;;;;;11.70;2.00;;;10.00;71.40;;;;;;5017282;28;20025;-68
2021/11/26 11:36:58;;;;;;;9.80;2.40;;;9.90;71.50;;;;;;5000471;28;20022;-67
2021/11/26 11:39:25;;;;;;;8.25;3.03;;;9.80;71.70;;;;;;5005624;28;20104;-67
2021/11/26 11:41:55;;;;;;;7.60;2.10;;;9.80;72.10;;;;;;5008640;28;20050;-67
2021/11/26 11:44:36;;;;;;;10.13;2.10;;;9.80;72.30;;;;;;5013712;28;20484;-67
2021/11/26 11:47:18;;;;;;;8.18;1.58;;;10.00;72.20;;;;;;5013404;28;20087;-66
2021/11/26 11:49:44;;;;;;;8.07;1.90;;;10.30;71.10;;;;;;5008358;28;20026;-67
2021/11/26 11:52:12;;;;;;;9.70;2.35;;;10.50;70.60;;;;;;5014271;28;20026;-66
2021/11/26 11:54:47;;;;;;;10.10;2.20;;;10.50;70.80;;;;;;5008649;28;20049;-66
2021/11/26 11:57:27;;;;;;;9.32;2.25;;;10.30;70.70;;;;;;5006978;28;20026;-66
2021/11/26 12:00:10;;;;;;;10.77;2.25;;;10.20;71.50;;;;;;5005646;28;20030;-66
2021/11/26 12:02:35;;;;;;;12.43;2.30;;;10.20;71.90;;;;;;5001481;28;20042;-67
2021/11/26 12:05:01;;;;;;;7.22;1.83;;;10.20;72.10;;;;;;5012928;28;20060;-66
2021/11/26 12:07:32;;;;;;;8.75;1.80;;;10.10;71.90;;;;;;5008565;28;20066;-66
2021/11/26 12:10:05;;;;;;;9.55;1.80;;;10.00;72.60;;;;;;5013312;28;20022;-66
2021/11/26 12:12:43;;;;;;;14.80;3.42;;;10.00;72.50;;;;;;5009551;28;20029;-66
2021/11/26 12:15:08;;;;;;;13.10;3.55;;;10.00;72.70;;;;;;5012783;28;20232;-66
2021/11/26 12:17:37;;;;;;;14.07;3.70;;;10.00;73.20;;;;;;5011744;28;20049;-66
2021/11/26 12:20:09;;;;;;;10.43;3.67;;;10.00;73.50;;;;;;4997863;28;20022;-66
2021/11/26 12:22:54;;;;;;;13.27;3.85;;;10.10;74.00;;;;;;5005738;28;20054;-66
2021/11/26 12:28:24;;;;;;;9.32;2.03;;;11.80;70.80;;;;;;5005045;28;20112;-67
2021/11/26 12:31:02;;;;;;;7.63;1.90;;;11.80;68.60;;;;;;5008944;28;20417;-67
2021/11/26 12:33:29;;;;;;;10.00;2.15;;;11.50;69.40;;;;;;5007933;28;20033;-67
2021/11/26 12:36:03;;;;;;;9.00;1.85;;;11.30;70.30;;;;;;5002830;28;20112;-67
2021/11/26 12:38:55;;;;;;;9.52;2.38;;;11.00;71.10;;;;;;5004702;28;20034;-67
2021/11/26 12:41:34;;;;;;;8.75;2.25;;;10.90;72.10;;;;;;5006430;28;20049;-66
2021/11/26 12:44:04;;;;;;;10.45;2.20;;;11.10;72.30;;;;;;5009536;28;20593;-67
2021/11/26 12:46:41;;;;;;;6.55;2.03;;;11.00;71.90;;;;;;5009501;28;20057;-66
2021/11/26 12:51:47;;;;;;;7.65;2.38;;;10.90;73.20;;;;;;5009737;28;20022;-67
2021/11/26 12:54:30;;;;;;;14.82;7.38;;;10.90;73.60;;;;;;5007032;28;20081;-67
2021/11/26 12:56:59;;;;;;;10.77;3.00;;;11.00;73.40;;;;;;5014208;28;20033;-67
2021/11/26 12:59:39;;;;;;;15.35;6.28;;;10.90;73.10;;;;;;5012610;28;20024;-66
2021/11/26 13:02:06;;;;;;;9.43;2.67;;;10.80;73.70;;;;;;4996455;28;20059;-67
2021/11/26 13:04:38;;;;;;;10.85;3.72;;;10.70;74.20;;;;;;4997926;28;20030;-66
2021/11/26 13:07:09;;;;;;;11.65;2.20;;;10.60;74.50;;;;;;5007243;28;20113;-67